Spokane, WA

6:32 AM PDT on October 24, 2014 (GMT -0700)
Felts | Change Station
CLOSE
Current Station
Airport
Location: Spokane Felts,
Elevation: 1952 ft
Nearby Weather Stations

Elev 1952 ft 47.68 °N, 117.32 °W | Updated 39 minutes ago

Overcast
Overcast
44 °F
Feels Like 42 °F
N
4
Wind Variable Wind from Variable

Today
High -- | Low -- °F
--% Chance of Precip.
Yesterday
High -- | Low -- °F
Precip. -- in
7:21 AM 5:44 PM
New Moon, 0% visible
Pressure 30.06 in
Visibility 10.0 miles
Clouds Scattered Clouds 11000 ft
Windchill 42 °F
Dew Point 40 °F
Humidity 85%
Rainfall 0.00 in
Snow Depth 1 in
UV 0 out of 12
Pollen 1.20 out of 12
PM2.5 Good
Flu Activity Sporadic
METAR KSFF 241253Z VRB03KT 10SM SCT110 07/04 A3006 RMK AO2 SLP180 T00670044

More Conditions Fewer Conditions

Pressure 30.06 in
Visibility 10.0 miles
Clouds Scattered Clouds 11000 ft
Windchill 42 °F
Dew Point 40 °F
Humidity 85%
Rainfall 0.00 in
Snow Depth 1 in
UV 0 out of 12
Pollen 1.20 out of 12
PM2.5 Good
Flu Activity Sporadic
METAR KSFF 241253Z VRB03KT 10SM SCT110 07/04 A3006 RMK AO2 SLP180 T00670044

More Conditions Fewer Conditions

10-Day Weather Forecast

Almanac

Astronomy

Oct. 24, 2014 Rise Set
Actual Time 7:21 AM PDT 5:44 PM PDT
Civil Twilight 6:49 AM PDT 6:16 PM PDT
Nautical Twilight 6:13 AM PDT 6:52 PM PDT
Astronomical Twilight 5:38 AM PDT 7:27 PM PDT
Moon 8:07 AM PDT 6:23 PM PDT
Length of Visible Light 11h 26m
Length of Day
10h 23m
Tomorrow will be 3m 14s shorter.
New Moon, 0% of the Moon is Illuminated
Today
New Moon
Oct 30
First Quarter
Nov 6
Full
Nov 14
Last Quarter
Nov 22
New

Today's Extremes

State Highs State Lows

Community

WunderPhotos

Upload Photos

1,764,550 photos uploaded!

WunderBlogs® & News

Nearby

Air Quality

  Air Quality AQ Index Pollutant
Yesterday Good
PM10
Current Good
PM2.5
Friday Good
PM10
Friday Good
CO

Snow Depth

Station Depth Elevation
Quartz Peak 1 in 4700 ft
Bunchgrass Meadow 0 in 5000 ft
Moses Mountain 0 in 5300 ft
Sourdough Gulch 1 in 4000 ft
Spruce Springs 1 in 5700 ft

Earthquake Activity

City Distance Mag. Time & Date
No recent earthquake activity has been reported nearby.
Minimum magnitude displayed is 2.5.

Coastal Water Temperatures

Place Temperature
No Stations Reporting

Nearby Weather Stations